AAL2081 KFAT-KPHX
Flight info
| Callsign | AAL2081 |
|---|---|
| Flight time | N/A |
| Altitude | 37000 |
| Route | YOSE3 NTELL FRAME EHF LANDO PMD DECAS J65 BLH HYDRR1 |
| Aircraft | A320/M-SDE3FGHIRWY/LB1 |
Departure
| Time | 2026-05-05 16:27 |
|---|---|
| Airport | Fresno Yosemite International Airport (KFAT) |
Arrival
| Time | N/A |
|---|---|
| Airport | Phoenix Sky Harbor International Airport (KPHX) |
| Time | Latitude | Longitude | Altitude | Speed | Heading |
|---|---|---|---|---|---|
| 2026-05-05 16:03 | 36.77194 | -119.71907 | 341 ft | 0 kts | 139° |
| 2026-05-05 16:13 | 36.77194 | -119.71908 | 341 ft | 0 kts | 139° |
| 2026-05-05 16:15 | 36.77207 | -119.71922 | 337 ft | 3 kts | 136° |
| 2026-05-05 16:15 | 36.77236 | -119.71951 | 337 ft | 2 kts | 140° |
| 2026-05-05 16:16 | 36.77250 | -119.71965 | 338 ft | 2 kts | 140° |
| 2026-05-05 16:22 | 36.77257 | -119.71928 | 339 ft | 6 kts | 46° |
| 2026-05-05 16:22 | 36.77273 | -119.71805 | 337 ft | 10 kts | 121° |
| 2026-05-05 16:23 | 36.77202 | -119.71638 | 340 ft | 11 kts | 77° |
| 2026-05-05 16:23 | 36.77191 | -119.71540 | 339 ft | 13 kts | 125° |
| 2026-05-05 16:23 | 36.77069 | -119.71329 | 335 ft | 17 kts | 125° |
| 2026-05-05 16:24 | 36.76996 | -119.71201 | 334 ft | 19 kts | 125° |
| 2026-05-05 16:24 | 36.76917 | -119.71065 | 340 ft | 20 kts | 125° |
| 2026-05-05 16:24 | 36.76767 | -119.70792 | 336 ft | 16 kts | 110° |
| 2026-05-05 16:25 | 36.76760 | -119.70647 | 340 ft | 18 kts | 91° |
| 2026-05-05 16:25 | 36.76832 | -119.70421 | 339 ft | 12 kts | 36° |
| 2026-05-05 16:25 | 36.76902 | -119.70391 | 353 ft | 9 kts | 336° |
| 2026-05-05 16:26 | 36.77147 | -119.70815 | 339 ft | 83 kts | 305° |
| 2026-05-05 16:26 | 36.78188 | -119.72622 | 653 ft | 147 kts | 306° |
| 2026-05-05 16:27 | 36.78800 | -119.73659 | 1171 ft | 151 kts | 307° |
| 2026-05-05 16:27 | 36.79411 | -119.74730 | 1750 ft | 151 kts | 305° |
| 2026-05-05 16:27 | 36.80010 | -119.75855 | 2151 ft | 164 kts | 304° |
| 2026-05-05 16:27 | 36.80667 | -119.77139 | 2407 ft | 187 kts | 298° |
| 2026-05-05 16:28 | 36.80910 | -119.78818 | 2632 ft | 215 kts | 260° |
| 2026-05-05 16:28 | 36.80109 | -119.80494 | 2970 ft | 243 kts | 219° |
| 2026-05-05 16:28 | 36.78472 | -119.81253 | 3493 ft | 265 kts | 181° |
| 2026-05-05 16:28 | 36.76674 | -119.80674 | 4315 ft | 273 kts | 153° |